createdAt,value
2018-07-24T00:02:26.043Z,18.50
2018-07-24T00:04:53.310Z,18.50
2018-07-24T00:07:20.685Z,18.50
2018-07-24T00:09:47.989Z,18.20
2018-07-24T00:12:15.343Z,18.10
2018-07-24T00:14:42.682Z,18.20
2018-07-24T00:17:09.909Z,18.30
2018-07-24T00:19:37.169Z,18.40
2018-07-24T00:22:04.577Z,18.50
2018-07-24T00:24:32.051Z,18.50
2018-07-24T00:26:59.359Z,18.30
2018-07-24T00:29:26.609Z,18.20
2018-07-24T00:31:53.901Z,18.20
2018-07-24T00:34:21.164Z,18.30
2018-07-24T00:36:48.449Z,18.30
2018-07-24T00:41:43.094Z,18.30
2018-07-24T00:44:10.445Z,18.30
2018-07-24T00:46:37.710Z,18.30
2018-07-24T00:49:05.499Z,18.30
2018-07-24T00:51:32.845Z,18.20
2018-07-24T00:54:00.121Z,18.20
2018-07-24T00:56:27.434Z,18.10
2018-07-24T00:58:54.722Z,18.20
2018-07-24T01:01:22.094Z,18.10
2018-07-24T01:03:49.359Z,18.20
2018-07-24T01:06:16.613Z,18.20
2018-07-24T01:08:43.901Z,18.10
2018-07-24T01:11:11.167Z,18.10
2018-07-24T01:13:38.421Z,18.00
2018-07-24T01:16:06.129Z,17.90
2018-07-24T01:18:33.510Z,18.00
2018-07-24T01:23:28.173Z,17.80
2018-07-24T01:25:55.418Z,17.80
2018-07-24T01:28:22.682Z,17.80
2018-07-24T01:30:49.947Z,17.70
2018-07-24T01:33:17.248Z,17.70
2018-07-24T01:35:44.490Z,17.70
2018-07-24T01:38:11.814Z,17.70
2018-07-24T01:40:39.072Z,17.70
2018-07-24T01:43:06.377Z,17.70
2018-07-24T01:50:28.189Z,17.70
2018-07-24T01:52:55.493Z,17.60
2018-07-24T01:55:22.764Z,17.60
2018-07-24T01:57:50.123Z,17.60
2018-07-24T02:00:17.798Z,17.60
2018-07-24T02:02:45.077Z,17.50
2018-07-24T02:05:12.717Z,17.50
2018-07-24T02:07:40.364Z,17.50
2018-07-24T02:12:35.078Z,17.30
2018-07-24T02:15:02.461Z,17.20
2018-07-24T02:19:57.059Z,17.20
2018-07-24T02:22:24.508Z,17.20
2018-07-24T02:24:51.793Z,17.30
2018-07-24T02:27:19.078Z,17.30
2018-07-24T02:29:47.066Z,17.30
2018-07-24T02:32:14.971Z,17.30
2018-07-24T02:34:42.270Z,17.30
2018-07-24T02:37:09.910Z,17.30
2018-07-24T02:39:37.193Z,17.30
2018-07-24T02:42:04.653Z,17.20
2018-07-24T02:44:32.050Z,17.30
2018-07-24T02:46:59.346Z,17.20
2018-07-24T02:49:26.638Z,17.10
2018-07-24T02:54:21.327Z,17.00
2018-07-24T02:56:48.629Z,16.90
2018-07-24T03:01:43.259Z,16.90
2018-07-24T03:04:10.566Z,16.90
2018-07-24T03:06:37.828Z,16.80
2018-07-24T03:09:07.079Z,16.80
2018-07-24T03:11:34.358Z,16.80
2018-07-24T03:14:01.646Z,16.80
2018-07-24T03:16:28.967Z,16.80
2018-07-24T03:18:56.206Z,16.80
2018-07-24T03:21:23.528Z,16.80
2018-07-24T03:23:50.824Z,16.80
2018-07-24T03:26:18.122Z,16.70
2018-07-24T03:28:45.453Z,16.70
2018-07-24T03:33:39.983Z,16.60
2018-07-24T03:36:07.230Z,16.70
2018-07-24T03:38:34.510Z,16.60
2018-07-24T03:43:29.061Z,16.40
2018-07-24T03:45:56.346Z,16.40
2018-07-24T03:48:23.642Z,16.50
2018-07-24T03:50:50.934Z,16.60
2018-07-24T03:55:45.542Z,16.60
2018-07-24T03:58:12.811Z,16.60
2018-07-24T04:00:40.212Z,16.50
2018-07-24T04:03:07.490Z,16.50
2018-07-24T04:05:34.860Z,16.60
2018-07-24T04:08:02.135Z,16.60
2018-07-24T04:10:29.401Z,16.50
2018-07-24T04:12:56.677Z,16.50
2018-07-24T04:15:23.970Z,16.50
2018-07-24T04:17:51.261Z,16.50
2018-07-24T04:20:18.557Z,16.40
2018-07-24T04:22:45.834Z,16.40
2018-07-24T04:25:13.096Z,16.40
2018-07-24T04:27:40.385Z,16.50
2018-07-24T04:30:07.627Z,16.50
2018-07-24T04:32:34.953Z,16.60
2018-07-24T04:39:56.957Z,16.60
2018-07-24T04:42:24.186Z,16.60
2018-07-24T04:44:51.711Z,16.60
2018-07-24T04:47:19.042Z,16.70
2018-07-24T04:49:46.290Z,16.80
2018-07-24T04:52:13.612Z,17.10
2018-07-24T04:54:40.866Z,18.60
2018-07-24T04:57:08.230Z,20.10
2018-07-24T04:59:35.478Z,21.50
2018-07-24T05:02:02.773Z,22.60
2018-07-24T05:04:30.062Z,23.50
2018-07-24T05:06:57.342Z,24.00
2018-07-24T05:09:24.605Z,24.20
2018-07-24T05:11:51.855Z,23.70
2018-07-24T05:14:19.394Z,22.70
2018-07-24T05:16:46.770Z,22.20
2018-07-24T05:19:14.031Z,21.60
2018-07-24T05:21:41.326Z,21.40
2018-07-24T05:24:08.602Z,21.00
2018-07-24T05:26:36.470Z,20.90
2018-07-24T05:29:03.973Z,20.70
2018-07-24T05:31:31.430Z,20.50
2018-07-24T05:33:58.802Z,20.40
2018-07-24T05:36:26.243Z,20.30
2018-07-24T05:38:53.575Z,20.40
2018-07-24T05:41:20.941Z,20.20
2018-07-24T05:43:48.242Z,20.20
2018-07-24T05:46:15.866Z,20.30
2018-07-24T05:48:43.864Z,20.20
2018-07-24T05:51:11.163Z,20.20
2018-07-24T05:53:38.497Z,20.30
2018-07-24T05:56:05.766Z,20.30
2018-07-24T05:58:33.285Z,20.30
2018-07-24T06:01:00.591Z,20.20
2018-07-24T06:03:28.067Z,20.30
2018-07-24T06:05:55.447Z,20.20
2018-07-24T06:10:50.146Z,20.20
2018-07-24T06:13:17.481Z,20.30
2018-07-24T06:15:45.103Z,20.20
2018-07-24T06:18:12.394Z,20.20
2018-07-24T06:23:07.114Z,20.20
2018-07-24T06:25:34.461Z,20.30
2018-07-24T06:28:01.774Z,20.30
2018-07-24T06:30:29.123Z,20.60
2018-07-24T06:37:51.205Z,20.70
2018-07-24T06:40:18.575Z,20.70
2018-07-24T06:42:45.939Z,20.80
2018-07-24T06:45:14.151Z,20.80
2018-07-24T06:50:08.819Z,21.00
2018-07-24T06:52:36.181Z,21.20
2018-07-24T06:55:03.550Z,21.40
2018-07-24T06:57:30.896Z,21.40
2018-07-24T06:59:58.225Z,21.40
2018-07-24T07:02:25.581Z,21.50
2018-07-24T07:04:52.919Z,21.70
2018-07-24T07:07:20.281Z,21.80
2018-07-24T07:09:47.618Z,21.60
2018-07-24T07:17:09.875Z,21.90
2018-07-24T07:19:37.263Z,22.00
2018-07-24T07:22:04.663Z,22.00
2018-07-24T07:26:59.278Z,22.10
2018-07-24T07:29:26.717Z,22.20
2018-07-24T07:31:54.154Z,22.30
2018-07-24T07:34:21.466Z,22.30
2018-07-24T07:36:48.808Z,22.50
2018-07-24T07:39:16.210Z,22.50
2018-07-24T07:41:43.699Z,22.50
2018-07-24T07:44:11.020Z,22.70
2018-07-24T07:46:38.466Z,22.70
2018-07-24T07:49:05.809Z,22.90
2018-07-24T07:54:00.574Z,22.90
2018-07-24T07:56:27.903Z,23.10
2018-07-24T07:58:55.268Z,23.10
2018-07-24T08:01:22.572Z,23.20
2018-07-24T08:03:49.946Z,23.20
2018-07-24T08:06:17.333Z,23.20
2018-07-24T08:08:44.723Z,23.20
2018-07-24T08:11:12.331Z,23.30
2018-07-24T08:18:34.445Z,23.60
2018-07-24T08:21:01.758Z,23.70
2018-07-24T08:23:29.258Z,23.80
2018-07-24T08:25:56.623Z,23.80
2018-07-24T08:28:24.035Z,23.70
2018-07-24T08:30:52.437Z,23.90
2018-07-24T08:33:19.882Z,23.90
2018-07-24T08:35:47.211Z,24.00
2018-07-24T08:38:14.523Z,24.10
2018-07-24T08:40:41.832Z,24.20
2018-07-24T08:43:09.238Z,24.30
2018-07-24T08:48:04.179Z,24.40
2018-07-24T08:52:58.897Z,24.50
2018-07-24T08:55:26.303Z,24.40
2018-07-24T08:57:53.499Z,24.60
2018-07-24T09:00:20.878Z,24.70
2018-07-24T09:02:48.190Z,25.00
2018-07-24T09:07:42.838Z,24.90
2018-07-24T09:10:10.191Z,24.90
2018-07-24T09:15:04.927Z,25.10
2018-07-24T09:19:59.727Z,25.30
2018-07-24T09:22:27.096Z,25.30
2018-07-24T09:24:54.394Z,25.30
2018-07-24T09:29:49.175Z,25.60
2018-07-24T09:32:16.519Z,25.70
2018-07-24T09:34:43.979Z,25.70
2018-07-24T09:37:11.350Z,25.70
2018-07-24T09:39:38.718Z,25.70
2018-07-24T09:42:06.024Z,26.00
2018-07-24T09:44:33.363Z,26.10
2018-07-24T09:47:01.067Z,26.10
2018-07-24T09:49:28.414Z,26.20
2018-07-24T09:51:55.795Z,26.30
2018-07-24T09:54:23.185Z,26.40
2018-07-24T09:56:50.464Z,26.40
2018-07-24T09:59:18.016Z,26.50
2018-07-24T10:01:45.356Z,26.50
2018-07-24T10:04:12.665Z,26.50
2018-07-24T10:06:40.047Z,26.70
2018-07-24T10:09:08.691Z,26.70
2018-07-24T10:11:36.042Z,26.80
2018-07-24T10:14:03.378Z,26.90
2018-07-24T10:16:30.774Z,27.00
2018-07-24T10:18:58.195Z,27.10
2018-07-24T10:21:25.446Z,27.20
2018-07-24T10:23:52.876Z,27.20
2018-07-24T10:26:20.207Z,27.30
2018-07-24T10:28:47.592Z,27.40
2018-07-24T10:31:14.910Z,27.40
2018-07-24T10:33:42.239Z,27.30
2018-07-24T10:36:09.642Z,27.40
2018-07-24T10:38:37.214Z,27.50
2018-07-24T10:41:04.539Z,27.70
2018-07-24T10:45:59.178Z,27.60
2018-07-24T10:50:53.838Z,27.40
2018-07-24T10:53:21.246Z,27.50
2018-07-24T10:55:48.579Z,27.50
2018-07-24T10:58:15.882Z,27.40
2018-07-24T11:00:43.204Z,27.60
2018-07-24T11:03:10.738Z,27.70
2018-07-24T11:05:38.098Z,27.70
2018-07-24T11:08:05.652Z,27.80
2018-07-24T11:10:32.976Z,27.80
2018-07-24T11:13:00.349Z,27.70
2018-07-24T11:15:27.749Z,27.70
2018-07-24T11:17:55.068Z,27.80
2018-07-24T11:20:22.485Z,27.70
2018-07-24T11:22:49.866Z,27.70
2018-07-24T11:25:17.207Z,27.60
2018-07-24T11:27:44.511Z,27.60
2018-07-24T11:30:11.886Z,27.50
2018-07-24T11:32:39.315Z,27.70
2018-07-24T11:35:06.721Z,27.90
2018-07-24T11:37:34.098Z,27.90
2018-07-24T11:40:01.508Z,27.90
2018-07-24T11:42:28.923Z,27.90
2018-07-24T11:44:56.280Z,27.90
2018-07-24T11:47:23.637Z,28.00
2018-07-24T11:49:50.990Z,28.10
2018-07-24T11:52:18.393Z,27.90
2018-07-24T11:54:45.746Z,27.90
2018-07-24T11:57:13.145Z,28.10
2018-07-24T11:59:40.487Z,28.10
2018-07-24T12:02:07.923Z,28.10
2018-07-24T12:04:35.302Z,28.10
2018-07-24T12:07:02.691Z,28.10
2018-07-24T12:09:30.019Z,28.10
2018-07-24T12:11:57.350Z,28.10
2018-07-24T12:14:24.691Z,28.30
2018-07-24T12:16:52.027Z,28.30
2018-07-24T12:19:19.370Z,28.30
2018-07-24T12:21:46.754Z,28.30
2018-07-24T12:24:14.278Z,28.30
2018-07-24T12:29:09.151Z,28.40
2018-07-24T12:31:36.498Z,28.60
2018-07-24T12:34:03.939Z,28.60
2018-07-24T12:36:31.266Z,28.50
2018-07-24T12:38:58.604Z,28.60
2018-07-24T12:41:26.009Z,28.60
2018-07-24T12:43:53.311Z,28.60
2018-07-24T12:46:20.643Z,28.60
2018-07-24T12:48:47.989Z,28.60
2018-07-24T12:51:15.467Z,28.50
2018-07-24T12:53:42.799Z,28.50
2018-07-24T12:58:37.633Z,28.60
2018-07-24T13:01:04.951Z,28.70
2018-07-24T13:03:32.384Z,29.00
2018-07-24T13:08:27.547Z,29.10
2018-07-24T13:10:55.045Z,29.20
2018-07-24T13:13:22.458Z,29.20
2018-07-24T13:15:49.778Z,29.20
2018-07-24T13:18:17.240Z,29.10
2018-07-24T13:20:44.631Z,29.00
2018-07-24T13:23:12.006Z,29.20
2018-07-24T13:25:39.363Z,29.20
2018-07-24T13:28:06.787Z,29.20
2018-07-24T13:30:34.157Z,29.20
2018-07-24T13:33:01.526Z,29.20
2018-07-24T13:35:28.822Z,29.20
2018-07-24T13:37:56.166Z,29.20
2018-07-24T13:40:23.498Z,29.20
2018-07-24T13:42:50.831Z,29.00
2018-07-24T13:45:18.171Z,29.20
2018-07-24T13:47:45.467Z,29.20
2018-07-24T13:50:12.814Z,29.10
2018-07-24T13:52:40.147Z,29.10
2018-07-24T13:57:34.901Z,29.30
2018-07-24T14:00:02.269Z,29.30
2018-07-24T14:02:29.563Z,29.30
2018-07-24T14:04:56.865Z,29.30
2018-07-24T14:07:24.738Z,29.20
2018-07-24T14:09:52.131Z,29.40
2018-07-24T14:14:46.794Z,29.10
2018-07-24T14:17:14.354Z,29.10
2018-07-24T14:19:42.370Z,29.10
2018-07-24T14:22:09.804Z,29.20
2018-07-24T14:24:37.175Z,29.30
2018-07-24T14:27:04.524Z,29.30
2018-07-24T14:29:31.868Z,29.50
2018-07-24T14:31:59.206Z,29.50
2018-07-24T14:34:26.530Z,29.30
2018-07-24T14:36:53.927Z,29.40
2018-07-24T14:41:48.582Z,29.40
2018-07-24T14:44:15.996Z,29.40
2018-07-24T14:51:38.025Z,29.50
2018-07-24T14:54:05.390Z,29.60
2018-07-24T14:56:32.738Z,29.60
2018-07-24T14:59:00.158Z,29.80
2018-07-24T15:01:27.482Z,29.80
2018-07-24T15:06:22.363Z,29.80
2018-07-24T15:08:49.710Z,29.80
2018-07-24T15:11:17.097Z,29.90
2018-07-24T15:13:44.439Z,29.80
2018-07-24T15:16:11.734Z,29.70
2018-07-24T15:18:38.997Z,29.90
2018-07-24T15:21:06.320Z,30.00
2018-07-24T15:23:33.628Z,30.10
2018-07-24T15:26:00.932Z,30.10
2018-07-24T15:28:28.234Z,30.10
2018-07-24T15:30:55.554Z,30.20
2018-07-24T15:33:22.975Z,30.20
2018-07-24T15:35:50.228Z,30.20
2018-07-24T15:38:17.564Z,30.30
2018-07-24T15:40:44.829Z,30.30
2018-07-24T15:43:12.162Z,30.30
2018-07-24T15:45:39.454Z,30.20
2018-07-24T15:48:06.839Z,30.20
2018-07-24T15:50:34.122Z,30.30
2018-07-24T15:53:01.507Z,30.40
2018-07-24T15:55:28.841Z,30.40
2018-07-24T16:00:23.470Z,30.40
2018-07-24T16:02:50.849Z,30.40
2018-07-24T16:05:18.159Z,30.40
2018-07-24T16:07:45.477Z,30.50
2018-07-24T16:15:07.334Z,30.40
2018-07-24T16:17:34.664Z,30.30
2018-07-24T16:20:02.067Z,30.20
2018-07-24T16:22:29.397Z,30.20
2018-07-24T16:24:56.793Z,30.20
2018-07-24T16:27:24.209Z,30.10
2018-07-24T16:29:51.469Z,30.10
2018-07-24T16:32:18.860Z,30.10
2018-07-24T16:34:46.157Z,30.10
2018-07-24T16:37:13.556Z,30.10
2018-07-24T16:39:40.886Z,30.20
2018-07-24T16:42:08.254Z,30.20
2018-07-24T16:44:35.510Z,30.10
2018-07-24T16:47:02.888Z,30.10
2018-07-24T16:49:30.210Z,30.00
2018-07-24T16:54:24.802Z,29.90
2018-07-24T16:56:52.082Z,29.80
2018-07-24T16:59:19.361Z,29.60
2018-07-24T17:01:46.697Z,29.50
2018-07-24T17:04:14.023Z,29.60
2018-07-24T17:06:41.358Z,29.50
2018-07-24T17:09:09.986Z,29.50
2018-07-24T17:11:37.710Z,29.40
2018-07-24T17:14:05.091Z,29.50
2018-07-24T17:16:32.387Z,29.50
2018-07-24T17:21:27.020Z,29.40
2018-07-24T17:28:48.898Z,29.30
2018-07-24T17:31:16.350Z,29.20
2018-07-24T17:33:43.688Z,29.20
2018-07-24T17:36:11.066Z,29.20
2018-07-24T17:38:38.369Z,29.20
2018-07-24T17:41:05.867Z,29.30
2018-07-24T17:46:00.557Z,29.30
2018-07-24T17:48:28.195Z,29.30
2018-07-24T17:53:22.662Z,29.40
2018-07-24T17:55:50.084Z,29.40
2018-07-24T17:58:17.383Z,29.40
2018-07-24T18:00:44.648Z,29.30
2018-07-24T18:03:11.946Z,29.30
2018-07-24T18:05:39.250Z,29.30
2018-07-24T18:08:06.590Z,29.20
2018-07-24T18:10:33.879Z,29.20
2018-07-24T18:13:01.155Z,29.20
2018-07-24T18:15:28.528Z,29.10
2018-07-24T18:17:55.770Z,29.00
2018-07-24T18:20:23.078Z,29.00
2018-07-24T18:22:50.373Z,28.90
2018-07-24T18:25:17.765Z,28.80
2018-07-24T18:27:45.133Z,28.70
2018-07-24T18:30:12.353Z,28.50
2018-07-24T18:32:39.637Z,28.50
2018-07-24T18:35:07.287Z,28.30
2018-07-24T18:37:34.619Z,28.20
2018-07-24T18:40:01.996Z,28.10
2018-07-24T18:42:29.303Z,28.00
2018-07-24T18:44:56.597Z,27.80
2018-07-24T18:47:24.308Z,27.70
2018-07-24T18:49:51.565Z,27.60
2018-07-24T18:52:18.924Z,27.40
2018-07-24T18:54:46.198Z,27.20
2018-07-24T18:57:13.504Z,27.20
2018-07-24T18:59:40.823Z,27.00
2018-07-24T19:02:08.107Z,26.80
2018-07-24T19:04:35.401Z,26.70
2018-07-24T19:07:02.731Z,26.50
2018-07-24T19:09:30.065Z,26.30
2018-07-24T19:16:51.981Z,26.00
2018-07-24T19:21:46.568Z,25.80
2018-07-24T19:24:13.853Z,25.70
2018-07-24T19:26:41.178Z,25.70
2018-07-24T19:29:08.517Z,25.60
2018-07-24T19:31:35.959Z,25.50
2018-07-24T19:34:03.250Z,25.40
2018-07-24T19:36:30.656Z,25.40
2018-07-24T19:38:58.064Z,25.20
2018-07-24T19:41:25.413Z,25.20
2018-07-24T19:43:52.798Z,25.10
2018-07-24T19:46:20.027Z,25.00
2018-07-24T19:48:47.346Z,25.00
2018-07-24T19:51:14.642Z,25.00
2018-07-24T19:53:41.985Z,24.90
2018-07-24T19:58:36.594Z,24.60
2018-07-24T20:01:03.999Z,24.20
2018-07-24T20:03:31.343Z,23.90
2018-07-24T20:05:59.405Z,24.00
2018-07-24T20:08:26.717Z,24.00
2018-07-24T20:10:54.013Z,24.00
2018-07-24T20:13:25.105Z,23.70
2018-07-24T20:15:52.364Z,23.70
2018-07-24T20:18:19.755Z,23.70
2018-07-24T20:23:14.355Z,23.80
2018-07-24T20:25:41.782Z,23.90
2018-07-24T20:28:09.128Z,23.90
2018-07-24T20:30:36.547Z,23.80
2018-07-24T20:33:03.894Z,23.80
2018-07-24T20:35:31.296Z,23.80
2018-07-24T20:37:58.605Z,23.70
2018-07-24T20:40:25.956Z,23.50
2018-07-24T20:42:53.369Z,23.30
2018-07-24T20:45:20.716Z,23.20
2018-07-24T20:47:48.066Z,23.10
2018-07-24T20:50:15.542Z,23.00
2018-07-24T20:55:10.279Z,23.10
2018-07-24T20:57:37.693Z,23.00
2018-07-24T21:00:05.198Z,22.90
2018-07-24T21:02:32.496Z,22.70
2018-07-24T21:04:59.758Z,22.60
2018-07-24T21:09:54.427Z,22.60
2018-07-24T21:12:21.774Z,22.50
2018-07-24T21:14:49.202Z,22.60
2018-07-24T21:17:16.577Z,22.50
2018-07-24T21:22:11.186Z,22.50
2018-07-24T21:24:38.515Z,22.50
2018-07-24T21:27:05.889Z,22.40
2018-07-24T21:29:33.201Z,22.30
2018-07-24T21:32:00.467Z,22.20
2018-07-24T21:34:27.798Z,22.10
2018-07-24T21:36:55.065Z,22.00
2018-07-24T21:39:22.378Z,21.90
2018-07-24T21:41:49.686Z,21.90
2018-07-24T21:44:17.008Z,21.80
2018-07-24T21:46:44.328Z,21.80
2018-07-24T21:49:11.755Z,21.70
2018-07-24T21:51:38.975Z,21.70
2018-07-24T21:54:06.322Z,21.60
2018-07-24T21:56:33.583Z,21.60
2018-07-24T21:59:00.922Z,21.50
2018-07-24T22:03:55.611Z,21.40
2018-07-24T22:06:22.926Z,21.30
2018-07-24T22:11:17.552Z,21.40
2018-07-24T22:13:44.915Z,21.40
2018-07-24T22:16:12.244Z,21.30
2018-07-24T22:18:39.650Z,21.20
2018-07-24T22:21:07.347Z,21.20
2018-07-24T22:23:34.652Z,21.20
2018-07-24T22:26:01.973Z,21.10
2018-07-24T22:30:56.515Z,21.10
2018-07-24T22:33:23.942Z,21.10
2018-07-24T22:35:51.287Z,21.20
2018-07-24T22:38:18.558Z,21.20
2018-07-24T22:40:45.929Z,21.20
2018-07-24T22:43:13.278Z,21.10
2018-07-24T22:45:40.598Z,21.10
2018-07-24T22:50:35.258Z,20.90
2018-07-24T22:53:02.581Z,20.80
2018-07-24T22:55:29.977Z,20.80
2018-07-24T22:57:57.314Z,20.80
2018-07-24T23:00:24.615Z,20.80
2018-07-24T23:02:51.923Z,20.70
2018-07-24T23:05:19.286Z,20.60
2018-07-24T23:07:46.579Z,20.50
2018-07-24T23:10:13.884Z,20.50
2018-07-24T23:12:41.136Z,20.60
2018-07-24T23:15:08.432Z,20.60
2018-07-24T23:17:35.694Z,20.70
2018-07-24T23:20:03.037Z,20.80
2018-07-24T23:24:57.557Z,20.70
2018-07-24T23:27:25.032Z,20.40
2018-07-24T23:29:52.282Z,20.30
2018-07-24T23:32:19.578Z,20.30
2018-07-24T23:37:14.157Z,20.10
2018-07-24T23:39:42.158Z,20.10
2018-07-24T23:42:09.605Z,20.20
2018-07-24T23:44:36.909Z,20.30
2018-07-24T23:47:04.239Z,20.30
2018-07-24T23:49:31.581Z,20.40
2018-07-24T23:51:58.893Z,20.40
2018-07-24T23:54:26.209Z,20.40
2018-07-24T23:56:53.476Z,20.50
2018-07-24T23:59:20.794Z,20.30
